KEGE/EGE METAR and TAF weather

Enter ICAO airport designator
Station Type Date Time Source
KEGE METAR 2019/02/21 15:56 UTC NOAA

KEGE 211556Z 00000KT 10SM OVC070 M08/M14 A2971 RMK AO2 SLP131 T10831139


Station Type Date Time Source
KEGE Decoded METAR 2019/02/21 15:56 UTC NOAA

Eagle County Regional, CO, United States (KEGE) 39-39N 106-55W
Feb 21, 2019 - 10:56 AM EST / 2019.02.21 1556 UTC
Wind: Calm:0
Visibility: 10 mile(s):0
Sky conditions: overcast
Temperature: 17.1 F (-8.3 C)
Dew Point: 7.0 F (-13.9 C)
Relative Humidity: 63%
Pressure (altimeter): 29.71 in. Hg (1006 hPa)
ob: KEGE 211556Z 00000KT 10SM OVC070 M08/M14 A2971 RMK AO2 SLP131 T10831139
cycle: 16

Station Type Date Time Source
KEGE TAF 2019/02/21 12:28 UTC NOAA

TAF KEGE 211125Z 2112/2212 08004KT P6SM VCSH OVC070
FM212100 VRB03KT P6SM VCSH BKN040 OVC060
FM220000 VRB04KT 6SM -SHSN SCT050 BKN070
FM220400 VRB03KT P6SM VCSH SCT050 OVC060
FM220600 VRB03KT P6SM SCT050 OVC060


Example: see airport list